Time;durP1;ratioP1;P1;durP2;ratioP2;P2;SDS_P1;SDS_P2;PMS_P1;PMS_P2;Temp;Humidity;BMP_temperature;BMP_pressure;BME280_temperature;BME280_humidity;BME280_pressure;Samples;Min_cycle;Max_cycle;Signal;HPM_P1;HPM_P2
2021/12/15 00:00:35;;;;;;;5.80;1.17;;;;;;;;;;4968831;28;20027;-61
2021/12/15 00:03:02;;;;;;;2.70;1.20;;;;;;;;;;4972375;28;20359;-60
2021/12/15 00:05:29;;;;;;;1.70;1.03;;;;;;;;;;4974310;28;20030;-60
2021/12/15 00:07:58;;;;;;;2.33;1.33;;;;;;;;;;4973920;28;20023;-60
2021/12/15 00:10:25;;;;;;;4.43;1.20;;;;;;;;;;4973360;28;20422;-61
2021/12/15 00:12:53;;;;;;;2.53;1.23;;;;;;;;;;4973409;28;20474;-61
2021/12/15 00:15:22;;;;;;;2.73;1.13;;;;;;;;;;4969598;28;20461;-61
2021/12/15 00:17:50;;;;;;;2.00;1.07;;;;;;;;;;4968553;28;20038;-60
2021/12/15 00:20:17;;;;;;;2.00;0.90;;;;;;;;;;4968583;28;20039;-60
2021/12/15 00:22:44;;;;;;;9.47;1.40;;;;;;;;;;4968188;28;20478;-60
2021/12/15 00:25:12;;;;;;;4.27;0.83;;;;;;;;;;4971528;28;20110;-60
2021/12/15 00:27:38;;;;;;;2.47;1.00;;;;;;;;;;4973177;28;20030;-60
2021/12/15 00:30:06;;;;;;;3.30;1.17;;;;;;;;;;4973697;28;20411;-60
2021/12/15 00:32:33;;;;;;;4.17;1.10;;;;;;;;;;4973573;28;20054;-60
2021/12/15 00:35:00;;;;;;;2.53;0.80;;;;;;;;;;4973630;28;20023;-60
2021/12/15 00:37:27;;;;;;;0.60;0.50;;;;;;;;;;4969496;28;20022;-60
2021/12/15 00:39:53;;;;;;;2.03;1.00;;;;;;;;;;4968393;28;20066;-61
2021/12/15 00:42:20;;;;;;;2.53;0.73;;;;;;;;;;4967371;28;20037;-61
2021/12/15 00:44:47;;;;;;;0.80;0.70;;;;;;;;;;4968101;28;20038;-61
2021/12/15 00:47:14;;;;;;;2.30;0.80;;;;;;;;;;4971050;28;20030;-61
2021/12/15 00:49:41;;;;;;;1.17;0.70;;;;;;;;;;4973155;28;20375;-60
2021/12/15 00:52:08;;;;;;;1.87;0.70;;;;;;;;;;4973483;28;20090;-61
2021/12/15 00:54:35;;;;;;;1.23;0.73;;;;;;;;;;4972404;28;20085;-60
2021/12/15 00:57:03;;;;;;;0.80;0.40;;;;;;;;;;4973374;28;20038;-60
2021/12/15 00:59:30;;;;;;;0.90;0.70;;;;;;;;;;4969476;28;20034;-60
2021/12/15 01:01:57;;;;;;;1.10;0.60;;;;;;;;;;4967510;28;20031;-61
2021/12/15 01:04:26;;;;;;;2.27;0.60;;;;;;;;;;4967731;28;20375;-60
2021/12/15 01:06:55;;;;;;;1.87;0.80;;;;;;;;;;4967878;28;20035;-61
2021/12/15 01:09:26;;;;;;;1.17;0.63;;;;;;;;;;4970492;28;20023;-60
2021/12/15 01:20:33;;;;;;;6.27;1.77;;;;;;;;;;4972548;28;20555;-60
2021/12/15 01:23:02;;;;;;;17.33;10.07;;;;;;;;;;4968398;28;20034;-61
2021/12/15 01:25:35;;;;;;;5.93;1.93;;;;;;;;;;4971271;28;20101;-60
2021/12/15 01:28:01;;;;;;;10.03;2.40;;;;;;;;;;4971200;28;20030;-60
2021/12/15 01:30:30;;;;;;;3.40;1.87;;;;;;;;;;4972031;28;20023;-60
2021/12/15 01:32:58;;;;;;;12.87;1.90;;;;;;;;;;4976346;28;20039;-61
2021/12/15 01:35:26;;;;;;;4.83;1.53;;;;;;;;;;4976643;28;20513;-60
2021/12/15 01:37:53;;;;;;;3.87;1.93;;;;;;;;;;4976421;28;20414;-60
2021/12/15 01:40:33;;;;;;;4.77;1.40;;;;;;;;;;4976497;28;20050;-60
2021/12/15 01:43:02;;;;;;;6.33;1.50;;;;;;;;;;4974993;28;20381;-60
2021/12/15 01:48:15;;;;;;;6.55;1.70;;;;;;;;;;4971297;28;20061;-60
2021/12/15 01:50:44;;;;;;;5.83;3.00;;;;;;;;;;4970981;28;20466;-60
2021/12/15 01:53:11;;;;;;;4.47;2.57;;;;;;;;;;4972362;28;20061;-60
2021/12/15 01:55:37;;;;;;;4.40;2.33;;;;;;;;;;4976348;28;20031;-60
2021/12/15 01:58:04;;;;;;;6.77;1.90;;;;;;;;;;4976228;28;20039;-60
2021/12/15 02:00:34;;;;;;;6.07;2.60;;;;;;;;;;4976087;28;20422;-60
2021/12/15 02:03:01;;;;;;;7.10;3.20;;;;;;;;;;4975959;28;20538;-60
2021/12/15 02:05:29;;;;;;;7.87;2.87;;;;;;;;;;4973743;28;20473;-60
2021/12/15 02:07:59;;;;;;;7.20;2.70;;;;;;;;;;4970563;28;20114;-60
2021/12/15 02:10:29;;;;;;;9.23;2.50;;;;;;;;;;4970531;28;20027;-60
2021/12/15 02:12:57;;;;;;;6.87;2.53;;;;;;;;;;4970724;28;20027;-61
2021/12/15 02:15:25;;;;;;;9.67;2.93;;;;;;;;;;4972321;28;20034;-60
2021/12/15 02:17:52;;;;;;;7.50;3.17;;;;;;;;;;4975806;28;20471;-60
2021/12/15 02:20:20;;;;;;;5.17;2.37;;;;;;;;;;4975911;28;20033;-60
2021/12/15 02:22:47;;;;;;;3.07;1.83;;;;;;;;;;4975668;28;20031;-60
2021/12/15 02:25:15;;;;;;;10.57;4.00;;;;;;;;;;4975566;28;20085;-60
2021/12/15 02:27:43;;;;;;;11.97;3.30;;;;;;;;;;4973497;28;20382;-60
2021/12/15 02:30:41;;;;;;;5.10;2.30;;;;;;;;;;4970286;28;20019;-60
2021/12/15 02:38:39;;;;;;;7.07;2.83;;;;;;;;;;4973540;28;20416;-60
2021/12/15 02:41:11;;;;;;;12.87;6.53;;;;;;;;;;4975728;28;20035;-60
2021/12/15 02:43:39;;;;;;;10.73;6.13;;;;;;;;;;4975377;28;20037;-60
2021/12/15 02:46:06;;;;;;;14.23;7.83;;;;;;;;;;4975427;28;20430;-60
2021/12/15 02:48:34;;;;;;;15.60;8.43;;;;;;;;;;4975582;28;20466;-59
2021/12/15 02:51:01;;;;;;;12.60;6.20;;;;;;;;;;4970761;28;20533;-60
2021/12/15 02:53:27;;;;;;;10.20;5.70;;;;;;;;;;4969737;28;20027;-60
2021/12/15 02:55:54;;;;;;;5.50;2.90;;;;;;;;;;4970244;28;20027;-60
2021/12/15 02:58:22;;;;;;;3.07;1.43;;;;;;;;;;4969673;28;20057;-60
2021/12/15 03:01:02;;;;;;;5.47;1.70;;;;;;;;;;4973301;28;20118;-60
2021/12/15 03:06:21;;;;;;;6.03;1.63;;;;;;;;;;4975304;28;20078;-60
2021/12/15 03:16:45;;;;;;;2.33;1.20;;;;;;;;;;4969488;28;20093;-60
2021/12/15 03:19:12;;;;;;;6.87;1.80;;;;;;;;;;4969641;28;20042;-60
2021/12/15 03:21:39;;;;;;;2.90;1.77;;;;;;;;;;4969702;28;20074;-60
2021/12/15 03:24:14;;;;;;;3.33;1.40;;;;;;;;;;4974911;28;20463;-60
2021/12/15 03:26:50;;;;;;;5.57;1.53;;;;;;;;;;4974790;28;20038;-60
2021/12/15 03:37:26;;;;;;;3.30;1.20;;;;;;;;;;4969278;28;20081;-59
2021/12/15 03:40:02;;;;;;;4.20;1.83;;;;;;;;;;4969662;28;20038;-58
2021/12/15 03:42:32;;;;;;;4.97;1.70;;;;;;;;;;4969022;28;20354;-59
2021/12/15 03:44:59;;;;;;;5.73;1.80;;;;;;;;;;4972036;28;20034;-61
2021/12/15 03:47:34;;;;;;;2.53;1.00;;;;;;;;;;4973878;28;20027;-61
2021/12/15 03:50:01;;;;;;;;;;;;;;;;;;4974229;28;20085;-60
2021/12/15 03:52:28;;;;;;;5.77;2.50;;;;;;;;;;4974143;28;19995;-61
2021/12/15 03:54:54;;;;;;;7.53;1.83;;;;;;;;;;4974695;28;20033;-61
2021/12/15 03:57:21;;;;;;;3.37;1.70;;;;;;;;;;4971045;28;20038;-59
2021/12/15 03:59:48;;;;;;;4.40;1.70;;;;;;;;;;4969569;28;20700;-61
2021/12/15 04:02:16;;;;;;;8.97;2.60;;;;;;;;;;4969024;28;20019;-61
2021/12/15 04:04:44;;;;;;;11.57;2.27;;;;;;;;;;4969215;28;20485;-59
2021/12/15 04:07:11;;;;;;;7.47;2.27;;;;;;;;;;4971458;28;20123;-60
2021/12/15 04:09:38;;;;;;;7.03;2.40;;;;;;;;;;4973689;28;20038;-58
2021/12/15 04:12:06;;;;;;;5.67;2.40;;;;;;;;;;4973778;28;20034;-58
2021/12/15 04:14:42;;;;;;;10.10;3.90;;;;;;;;;;4972886;28;20076;-59
2021/12/15 04:17:26;;;;;;;4.20;2.07;;;;;;;;;;4973894;28;20493;-58
2021/12/15 04:19:56;;;;;;;6.10;2.10;;;;;;;;;;4969916;28;20041;-58
2021/12/15 04:22:24;;;;;;;6.33;2.93;;;;;;;;;;4967372;28;20124;-58
2021/12/15 04:24:51;;;;;;;5.80;2.17;;;;;;;;;;4967292;28;20026;-58
2021/12/15 04:27:20;;;;;;;5.73;2.63;;;;;;;;;;4966406;28;20034;-59
2021/12/15 04:29:48;;;;;;;5.57;1.97;;;;;;;;;;4970078;28;20038;-58
2021/12/15 04:32:34;;;;;;;5.70;1.90;;;;;;;;;;4972241;28;20022;-58
2021/12/15 04:35:01;;;;;;;7.93;2.40;;;;;;;;;;4972064;28;20023;-58
2021/12/15 04:37:28;;;;;;;7.00;2.60;;;;;;;;;;4971974;28;20066;-58
2021/12/15 04:39:55;;;;;;;4.40;2.03;;;;;;;;;;4973114;28;20049;-58
2021/12/15 04:42:24;;;;;;;6.67;2.57;;;;;;;;;;4968983;28;20027;-58
2021/12/15 04:44:54;;;;;;;7.70;2.00;;;;;;;;;;4968006;28;20042;-59
2021/12/15 04:47:21;;;;;;;6.23;3.03;;;;;;;;;;4967920;28;20085;-58
2021/12/15 04:49:50;;;;;;;10.67;2.50;;;;;;;;;;4968286;28;20085;-59
2021/12/15 04:52:19;;;;;;;5.63;2.30;;;;;;;;;;4971890;28;20031;-58
2021/12/15 04:54:46;;;;;;;5.60;2.13;;;;;;;;;;4973597;28;20027;-58
2021/12/15 04:57:13;;;;;;;7.17;2.80;;;;;;;;;;4972579;28;20031;-58
2021/12/15 04:59:40;;;;;;;7.27;2.57;;;;;;;;;;4973383;28;20041;-58
2021/12/15 05:02:08;;;;;;;10.37;2.40;;;;;;;;;;4972681;28;20037;-58
2021/12/15 05:04:35;;;;;;;8.30;2.63;;;;;;;;;;4968969;28;20097;-58
2021/12/15 05:07:02;;;;;;;12.07;2.60;;;;;;;;;;4967954;28;20027;-58
2021/12/15 05:09:29;;;;;;;5.67;2.30;;;;;;;;;;4967697;28;20034;-58
2021/12/15 05:11:56;;;;;;;6.27;1.77;;;;;;;;;;4967792;28;20038;-59
2021/12/15 05:14:23;;;;;;;8.47;1.80;;;;;;;;;;4971585;28;20030;-58
2021/12/15 05:16:51;;;;;;;5.40;2.17;;;;;;;;;;4972485;28;20046;-59
2021/12/15 05:19:18;;;;;;;8.33;2.50;;;;;;;;;;4973157;28;20027;-58
2021/12/15 05:21:46;;;;;;;3.07;1.80;;;;;;;;;;4973110;28;20037;-58
2021/12/15 05:24:30;;;;;;;4.47;2.10;;;;;;;;;;4973386;28;20033;-58
2021/12/15 05:27:02;;;;;;;5.27;1.83;;;;;;;;;;4968281;28;20494;-58
2021/12/15 05:29:29;;;;;;;4.77;2.20;;;;;;;;;;4967671;28;20061;-59
2021/12/15 05:31:56;;;;;;;8.40;2.47;;;;;;;;;;4967381;28;20037;-58
2021/12/15 05:34:25;;;;;;;5.90;2.23;;;;;;;;;;4967778;28;20015;-58
2021/12/15 05:36:52;;;;;;;4.47;2.57;;;;;;;;;;4971693;28;20046;-58
2021/12/15 05:39:19;;;;;;;7.93;2.07;;;;;;;;;;4972901;28;20031;-58
2021/12/15 05:41:46;;;;;;;6.07;2.33;;;;;;;;;;4972613;28;20023;-58
2021/12/15 05:44:12;;;;;;;4.13;1.60;;;;;;;;;;4972578;28;20099;-58
2021/12/15 05:46:39;;;;;;;8.43;3.27;;;;;;;;;;4972563;28;20027;-58
2021/12/15 05:49:06;;;;;;;5.47;2.10;;;;;;;;;;4968537;28;20027;-58
2021/12/15 05:51:33;;;;;;;4.43;1.77;;;;;;;;;;4967426;28;20088;-58
2021/12/15 05:54:00;;;;;;;4.03;2.00;;;;;;;;;;4967521;28;20027;-58
2021/12/15 05:56:27;;;;;;;4.13;2.00;;;;;;;;;;4967394;28;20173;-58
2021/12/15 05:58:54;;;;;;;6.90;2.67;;;;;;;;;;4971121;28;20050;-58
2021/12/15 06:01:21;;;;;;;7.97;1.67;;;;;;;;;;4972627;28;20493;-58
2021/12/15 06:03:47;;;;;;;3.43;1.97;;;;;;;;;;4972867;28;20031;-58
2021/12/15 06:06:14;;;;;;;4.67;1.90;;;;;;;;;;4972737;28;20109;-58
2021/12/15 06:08:41;;;;;;;4.73;1.80;;;;;;;;;;4973018;28;20027;-58
2021/12/15 06:11:08;;;;;;;4.10;1.87;;;;;;;;;;4971810;28;20038;-58
2021/12/15 06:13:36;;;;;;;4.23;1.97;;;;;;;;;;4970030;28;20030;-58
2021/12/15 06:16:05;;;;;;;4.63;1.63;;;;;;;;;;4970956;28;20039;-58
2021/12/15 06:18:32;;;;;;;3.57;1.77;;;;;;;;;;4970752;28;20172;-58
2021/12/15 06:20:59;;;;;;;3.67;1.70;;;;;;;;;;4974334;28;20078;-58
2021/12/15 06:23:27;;;;;;;2.17;1.27;;;;;;;;;;4975835;28;20026;-59
2021/12/15 06:25:55;;;;;;;4.00;1.67;;;;;;;;;;4975629;28;20046;-58
2021/12/15 06:28:23;;;;;;;2.50;1.40;;;;;;;;;;4975385;28;20035;-58
2021/12/15 06:30:51;;;;;;;5.50;1.80;;;;;;;;;;4976003;28;20371;-57
2021/12/15 06:33:19;;;;;;;6.90;2.00;;;;;;;;;;4972073;28;20022;-58
2021/12/15 06:35:53;;;;;;;3.10;1.60;;;;;;;;;;4970598;28;20037;-58
2021/12/15 06:38:24;;;;;;;3.00;1.73;;;;;;;;;;4970616;28;20031;-58
2021/12/15 06:40:51;;;;;;;3.10;1.70;;;;;;;;;;4970355;28;20765;-58
2021/12/15 06:43:18;;;;;;;3.47;1.50;;;;;;;;;;4973535;28;20034;-58
2021/12/15 06:46:22;;;;;;;2.37;1.37;;;;;;;;;;4975585;28;20046;-58
2021/12/15 06:59:48;;;;;;;7.43;1.67;;;;;;;;;;4969945;28;20085;-58
2021/12/15 07:02:16;;;;;;;2.43;1.47;;;;;;;;;;4969648;28;20033;-58
2021/12/15 07:04:42;;;;;;;2.83;1.37;;;;;;;;;;4971776;28;20034;-58
2021/12/15 07:07:11;;;;;;;2.97;1.50;;;;;;;;;;4975439;28;20431;-58
2021/12/15 07:09:38;;;;;;;4.50;1.83;;;;;;;;;;4974687;28;20490;-57
2021/12/15 07:12:05;;;;;;;6.57;2.03;;;;;;;;;;4975041;28;20369;-58
2021/12/15 07:14:32;;;;;;;3.13;1.63;;;;;;;;;;4974819;28;20034;-58
2021/12/15 07:16:59;;;;;;;2.73;1.40;;;;;;;;;;4972487;28;20616;-58
2021/12/15 07:22:06;;;;;;;4.50;1.70;;;;;;;;;;4969397;28;20174;-58
2021/12/15 07:24:34;;;;;;;3.23;1.70;;;;;;;;;;4969382;28;20666;-58
2021/12/15 07:27:02;;;;;;;4.03;1.50;;;;;;;;;;4971727;28;20054;-58
2021/12/15 07:29:29;;;;;;;4.83;1.60;;;;;;;;;;4974782;28;20069;-58
2021/12/15 07:31:56;;;;;;;3.20;1.70;;;;;;;;;;4974740;28;20273;-58
2021/12/15 07:34:24;;;;;;;2.80;1.30;;;;;;;;;;4974106;28;20297;-58
2021/12/15 07:36:51;;;;;;;9.40;1.53;;;;;;;;;;4974703;28;20053;-58
2021/12/15 07:39:18;;;;;;;3.00;1.50;;;;;;;;;;4971908;28;20043;-57
2021/12/15 07:41:51;;;;;;;3.90;1.87;;;;;;;;;;4969530;28;20725;-58
2021/12/15 07:44:19;;;;;;;4.23;1.80;;;;;;;;;;4969258;28;20287;-58
2021/12/15 07:46:46;;;;;;;3.50;1.70;;;;;;;;;;4968754;28;20039;-58
2021/12/15 07:49:14;;;;;;;3.30;1.50;;;;;;;;;;4971261;28;20300;-58
2021/12/15 07:51:45;;;;;;;6.63;1.97;;;;;;;;;;4974177;28;20292;-58
2021/12/15 07:54:12;;;;;;;5.60;2.80;;;;;;;;;;4974288;28;20276;-58
2021/12/15 07:56:39;;;;;;;3.03;1.53;;;;;;;;;;4974016;28;20268;-58
2021/12/15 07:59:05;;;;;;;5.03;1.83;;;;;;;;;;4974125;28;20281;-58
2021/12/15 08:01:32;;;;;;;3.17;1.70;;;;;;;;;;4971042;28;20273;-58
2021/12/15 08:03:59;;;;;;;3.93;1.97;;;;;;;;;;4968596;28;20295;-58
2021/12/15 08:06:27;;;;;;;4.37;1.97;;;;;;;;;;4969020;28;20304;-58
2021/12/15 08:08:54;;;;;;;5.87;1.73;;;;;;;;;;4968527;28;20282;-58
2021/12/15 08:11:21;;;;;;;5.27;1.60;;;;;;;;;;4970717;28;20268;-57
2021/12/15 08:13:48;;;;;;;4.00;1.80;;;;;;;;;;4973981;28;20795;-58
2021/12/15 08:16:15;;;;;;;4.93;1.83;;;;;;;;;;4973632;28;20356;-58
2021/12/15 08:18:42;;;;;;;5.10;1.70;;;;;;;;;;4973721;28;20946;-57
2021/12/15 08:21:09;;;;;;;3.47;1.40;;;;;;;;;;4973680;28;20272;-58
2021/12/15 08:23:36;;;;;;;2.10;1.20;;;;;;;;;;4971714;28;20648;-58
2021/12/15 08:26:04;;;;;;;2.53;1.43;;;;;;;;;;4968514;28;20625;-58
2021/12/15 08:28:31;;;;;;;2.50;1.40;;;;;;;;;;4968193;28;20632;-57
2021/12/15 08:30:59;;;;;;;3.67;1.90;;;;;;;;;;4968429;28;20802;-57
2021/12/15 08:33:26;;;;;;;5.97;1.60;;;;;;;;;;4969600;28;20272;-58
2021/12/15 08:35:56;;;;;;;5.90;1.60;;;;;;;;;;4974007;28;20287;-57
2021/12/15 08:38:23;;;;;;;4.43;2.03;;;;;;;;;;4973529;28;20292;-57
2021/12/15 08:40:53;;;;;;;2.67;1.47;;;;;;;;;;4973522;28;20759;-58
2021/12/15 08:43:21;;;;;;;3.13;1.80;;;;;;;;;;4973370;28;20272;-57
2021/12/15 08:46:09;;;;;;;3.37;1.77;;;;;;;;;;4970758;28;20602;-58
2021/12/15 08:48:37;;;;;;;3.93;1.60;;;;;;;;;;4967998;28;20335;-58
2021/12/15 08:51:05;;;;;;;3.93;1.83;;;;;;;;;;4967843;28;20269;-58
2021/12/15 08:53:32;;;;;;;2.73;1.63;;;;;;;;;;4968058;28;20307;-58
2021/12/15 08:56:00;;;;;;;4.77;2.17;;;;;;;;;;4970662;28;20261;-59
2021/12/15 08:58:26;;;;;;;3.13;1.60;;;;;;;;;;4973147;28;20281;-58
2021/12/15 09:00:56;;;;;;;4.07;1.70;;;;;;;;;;4972928;28;20264;-58
2021/12/15 09:03:23;;;;;;;3.67;1.47;;;;;;;;;;4969937;28;20269;-58
2021/12/15 09:05:52;;;;;;;2.77;1.67;;;;;;;;;;4973191;28;20310;-58
2021/12/15 09:08:19;;;;;;;3.53;1.73;;;;;;;;;;4970176;28;20261;-58
2021/12/15 09:10:46;;;;;;;3.10;1.80;;;;;;;;;;4967835;28;20265;-58
2021/12/15 09:13:14;;;;;;;4.97;1.93;;;;;;;;;;4967765;28;20268;-58
2021/12/15 09:15:41;;;;;;;6.40;1.67;;;;;;;;;;4967706;28;20328;-57
2021/12/15 09:18:08;;;;;;;3.20;1.60;;;;;;;;;;4970286;28;20303;-58
2021/12/15 09:20:37;;;;;;;3.87;1.60;;;;;;;;;;4972978;28;20272;-58
2021/12/15 09:23:06;;;;;;;7.00;1.80;;;;;;;;;;4972930;28;20668;-57
2021/12/15 09:25:33;;;;;;;6.27;2.17;;;;;;;;;;4972810;28;20353;-58
2021/12/15 09:27:59;;;;;;;11.70;2.00;;;;;;;;;;4973362;28;20253;-58
2021/12/15 09:30:28;;;;;;;7.00;2.30;;;;;;;;;;4970174;28;20795;-58
2021/12/15 09:32:55;;;;;;;4.07;1.70;;;;;;;;;;4967666;28;20803;-58
2021/12/15 09:35:22;;;;;;;3.80;1.70;;;;;;;;;;4967642;28;20299;-58
2021/12/15 09:37:50;;;;;;;7.97;2.03;;;;;;;;;;4967262;28;20367;-58
2021/12/15 09:40:18;;;;;;;2.77;1.50;;;;;;;;;;4969841;28;20253;-58
2021/12/15 09:42:45;;;;;;;3.90;1.60;;;;;;;;;;4973175;28;20264;-58
2021/12/15 09:45:29;;;;;;;4.00;2.10;;;;;;;;;;4975605;28;20275;-58
2021/12/15 10:04:24;;;;;;;3.55;1.55;;;;;;;;;;4975955;28;20050;-58
2021/12/15 10:07:19;;;;;;;3.57;1.50;;;;;;;;;;4976269;28;20470;-58
2021/12/15 10:18:43;;;;;;;2.97;1.50;;;;;;;;;;4970781;28;20299;-58
2021/12/15 10:21:19;;;;;;;2.50;1.30;;;;;;;;;;4970279;28;20276;-58
2021/12/15 10:23:48;;;;;;;2.30;1.40;;;;;;;;;;4970851;28;20322;-58
2021/12/15 10:26:14;;;;;;;4.70;1.60;;;;;;;;;;4975746;28;20729;-58
2021/12/15 10:28:43;;;;;;;2.30;1.47;;;;;;;;;;4975827;28;20399;-58
2021/12/15 10:31:13;;;;;;;2.97;1.43;;;;;;;;;;4975981;28;20340;-58
2021/12/15 10:33:46;;;;;;;3.37;1.50;;;;;;;;;;4975260;28;20271;-58
2021/12/15 10:36:18;;;;;;;3.47;1.73;;;;;;;;;;4974923;28;20489;-58
2021/12/15 10:38:46;;;;;;;2.50;1.30;;;;;;;;;;4970219;28;20281;-58
2021/12/15 10:41:12;;;;;;;3.50;1.80;;;;;;;;;;4970131;28;20271;-58
2021/12/15 10:43:50;;;;;;;4.07;1.90;;;;;;;;;;4970116;28;20265;-58
2021/12/15 10:46:24;;;;;;;6.10;1.73;;;;;;;;;;4971431;28;20743;-58
2021/12/15 10:48:53;;;;;;;4.00;1.50;;;;;;;;;;4975189;28;20729;-58
2021/12/15 10:51:31;;;;;;;3.23;1.63;;;;;;;;;;4975555;28;20548;-58
2021/12/15 10:54:00;;;;;;;2.63;1.63;;;;;;;;;;4960370;28;20269;-58
2021/12/15 10:56:29;;;;;;;2.63;1.50;;;;;;;;;;4975031;28;20288;-58
2021/12/15 10:58:58;;;;;;;3.27;1.67;;;;;;;;;;4972885;28;20293;-57
2021/12/15 11:01:43;;;;;;;3.27;2.07;;;;;;;;;;4970114;28;20364;-57
2021/12/15 11:04:19;;;;;;;2.70;1.57;;;;;;;;;;4969072;28;20616;-58
2021/12/15 11:06:46;;;;;;;5.00;1.63;;;;;;;;;;4969839;28;20339;-58
2021/12/15 11:09:18;;;;;;;3.13;1.80;;;;;;;;;;4972516;28;20284;-57
2021/12/15 11:12:05;;;;;;;3.17;1.47;;;;;;;;;;4975084;28;20802;-58
2021/12/15 11:14:33;;;;;;;5.07;1.90;;;;;;;;;;4974660;28;20766;-57
2021/12/15 11:17:06;;;;;;;4.73;1.90;;;;;;;;;;4974967;28;20343;-58
2021/12/15 11:19:47;;;;;;;3.83;2.00;;;;;;;;;;4974969;28;20272;-57
2021/12/15 11:22:32;;;;;;;4.00;1.73;;;;;;;;;;4970241;28;20277;-57
2021/12/15 11:25:00;;;;;;;2.80;1.63;;;;;;;;;;4969548;28;20345;-57
2021/12/15 11:27:27;;;;;;;3.53;1.50;;;;;;;;;;4969421;28;20019;-57
2021/12/15 11:29:53;;;;;;;5.80;1.83;;;;;;;;;;4969406;28;21043;-57
2021/12/15 11:32:59;;;;;;;3.00;1.30;;;;;;;;;;4974195;28;20265;-57
2021/12/15 11:35:28;;;;;;;3.13;1.50;;;;;;;;;;4915218;29;20882;-57
2021/12/15 11:37:57;;;;;;;5.80;1.50;;;;;;;;;;4915043;29;20365;-57
2021/12/15 11:40:27;;;;;;;4.13;1.67;;;;;;;;;;4945823;28;20281;-57
2021/12/15 11:42:53;;;;;;;3.17;1.63;;;;;;;;;;4972645;28;20269;-57
2021/12/15 11:45:20;;;;;;;6.37;1.80;;;;;;;;;;4969317;28;20264;-57
2021/12/15 11:47:47;;;;;;;6.07;2.50;;;;;;;;;;4968766;28;20296;-58
2021/12/15 11:50:16;;;;;;;3.97;1.97;;;;;;;;;;4969165;28;20269;-57
2021/12/15 11:52:47;;;;;;;5.70;2.23;;;;;;;;;;4969585;28;20263;-57
2021/12/15 11:55:25;;;;;;;3.37;2.10;;;;;;;;;;4974105;28;20312;-58
2021/12/15 11:57:52;;;;;;;3.37;2.10;;;;;;;;;;4974008;28;20313;-57
2021/12/15 12:00:21;;;;;;;4.13;1.67;;;;;;;;;;4974427;28;20618;-57
2021/12/15 12:02:54;;;;;;;2.93;1.60;;;;;;;;;;4974291;28;20612;-58
2021/12/15 12:05:28;;;;;;;6.23;2.00;;;;;;;;;;4972278;28;20268;-58
2021/12/15 12:07:58;;;;;;;5.18;2.20;;;;;;;;;;4951159;28;20681;-57
2021/12/15 12:10:28;;;;;;;3.40;1.90;;;;;;;;;;4968935;28;20035;-57
2021/12/15 12:13:20;;;;;;;2.97;1.50;;;;;;;;;;4952232;28;20268;-57
2021/12/15 12:15:48;;;;;;;5.47;3.17;;;;;;;;;;4971000;28;20267;-57
2021/12/15 12:18:16;;;;;;;4.93;1.80;;;;;;;;;;4973775;28;20497;-57
2021/12/15 12:20:50;;;;;;;4.37;2.80;;;;;;;;;;4974032;28;20264;-57
2021/12/15 12:23:28;;;;;;;5.82;1.95;;;;;;;;;;4973837;28;20307;-58
2021/12/15 12:25:56;;;;;;;4.80;2.90;;;;;;;;;;4973184;28;20034;-57
2021/12/15 12:28:25;;;;;;;7.50;2.63;;;;;;;;;;4969950;28;20696;-57
2021/12/15 12:30:54;;;;;;;4.40;1.87;;;;;;;;;;4968276;28;20272;-58
2021/12/15 12:33:22;;;;;;;10.57;4.40;;;;;;;;;;4968389;28;20269;-57
2021/12/15 12:35:51;;;;;;;5.60;2.70;;;;;;;;;;4968378;28;20860;-57
2021/12/15 12:38:21;;;;;;;5.73;2.13;;;;;;;;;;4971394;28;20320;-58
2021/12/15 12:41:05;;;;;;;3.93;1.80;;;;;;;;;;4973640;28;20747;-57
2021/12/15 12:43:33;;;;;;;2.80;1.50;;;;;;;;;;4957564;28;20260;-58
2021/12/15 12:46:05;;;;;;;10.20;3.10;;;;;;;;;;4973572;28;20344;-57
2021/12/15 12:49:03;;;;;;;3.83;1.60;;;;;;;;;;4973366;28;20268;-57
2021/12/15 12:59:59;;;;;;;5.07;2.20;;;;;;;;;;4970252;28;20280;-58
2021/12/15 13:02:36;;;;;;;4.23;2.30;;;;;;;;;;4973101;28;20269;-57
2021/12/15 13:05:04;;;;;;;7.10;1.80;;;;;;;;;;4973415;28;20261;-58
2021/12/15 13:07:47;;;;;;;3.47;2.00;;;;;;;;;;4973204;28;20754;-58
2021/12/15 13:10:14;;;;;;;6.30;2.13;;;;;;;;;;4972830;28;20260;-58
2021/12/15 13:12:47;;;;;;;4.33;1.77;;;;;;;;;;4969472;28;20296;-57
2021/12/15 13:15:18;;;;;;;10.63;1.80;;;;;;;;;;4967748;28;20264;-58
2021/12/15 13:17:58;;;;;;;3.50;1.53;;;;;;;;;;4968288;28;20324;-57
2021/12/15 13:20:27;;;;;;;4.03;1.70;;;;;;;;;;4971695;28;20269;-58
2021/12/15 13:28:46;;;;;;;4.32;1.92;;;;;;;;;;4970605;28;20623;-58
2021/12/15 13:31:21;;;;;;;6.83;1.40;;;;;;;;;;4976871;28;20030;-57
2021/12/15 13:33:57;;;;;;;5.57;2.95;;;;;;;;;;4974910;28;20264;-57
2021/12/15 13:36:31;;;;;;;3.43;1.60;;;;;;;;;;4971537;28;20064;-57
2021/12/15 13:39:04;;;;;;;3.83;1.87;;;;;;;;;;4971154;28;20295;-57
2021/12/15 13:44:06;;;;;;;3.73;1.80;;;;;;;;;;4972796;28;20273;-57
2021/12/15 13:46:43;;;;;;;9.70;2.10;;;;;;;;;;4976866;28;20347;-58
2021/12/15 13:49:27;;;;;;;6.37;2.87;;;;;;;;;;4976456;28;20303;-58
2021/12/15 13:52:04;;;;;;;5.20;1.97;;;;;;;;;;4976355;28;20281;-58
2021/12/15 13:54:37;;;;;;;5.07;2.00;;;;;;;;;;4976664;28;20271;-57
2021/12/15 13:57:16;;;;;;;5.40;2.20;;;;;;;;;;4972493;28;20292;-58
2021/12/15 13:59:48;;;;;;;3.77;1.93;;;;;;;;;;4970885;28;20752;-58
2021/12/15 14:02:17;;;;;;;2.97;2.07;;;;;;;;;;4964625;28;20265;-58
2021/12/15 14:04:49;;;;;;;3.77;2.40;;;;;;;;;;4970515;28;20328;-58
2021/12/15 14:07:36;;;;;;;6.00;2.20;;;;;;;;;;4974870;28;20660;-57
2021/12/15 14:10:03;;;;;;;6.37;1.90;;;;;;;;;;4976098;28;20268;-58
2021/12/15 14:12:48;;;;;;;5.07;2.27;;;;;;;;;;4975796;28;20265;-57
2021/12/15 14:15:26;;;;;;;4.28;2.15;;;;;;;;;;4975957;28;20338;-58
2021/12/15 14:18:00;;;;;;;4.87;2.10;;;;;;;;;;4975064;28;20039;-57
2021/12/15 14:20:29;;;;;;;2.63;1.73;;;;;;;;;;4951495;29;20423;-58
2021/12/15 14:22:56;;;;;;;3.73;1.97;;;;;;;;;;4962146;28;20089;-59
2021/12/15 14:25:27;;;;;;;3.93;2.30;;;;;;;;;;4970434;28;20038;-57
2021/12/15 14:27:54;;;;;;;4.00;1.80;;;;;;;;;;4970829;28;20114;-58
2021/12/15 14:30:21;;;;;;;4.40;2.10;;;;;;;;;;4974919;28;20643;-58
2021/12/15 14:32:48;;;;;;;3.50;1.87;;;;;;;;;;4975464;28;20382;-58
2021/12/15 14:35:22;;;;;;;4.40;1.67;;;;;;;;;;4975555;28;20038;-58
2021/12/15 14:37:49;;;;;;;2.33;1.37;;;;;;;;;;4975614;28;20121;-57
2021/12/15 14:40:20;;;;;;;3.70;1.70;;;;;;;;;;4973774;28;20053;-58
2021/12/15 14:42:46;;;;;;;3.23;1.77;;;;;;;;;;4970188;28;20027;-58
2021/12/15 14:45:14;;;;;;;2.27;1.40;;;;;;;;;;4969735;28;20492;-58
2021/12/15 14:47:43;;;;;;;6.47;1.60;;;;;;;;;;4970843;28;20053;-58
2021/12/15 14:50:11;;;;;;;4.03;1.57;;;;;;;;;;4971296;28;20034;-58
2021/12/15 14:52:41;;;;;;;3.83;1.47;;;;;;;;;;4974790;28;20035;-58
2021/12/15 14:55:10;;;;;;;2.80;1.57;;;;;;;;;;4975233;28;20026;-59
2021/12/15 14:57:37;;;;;;;3.27;1.73;;;;;;;;;;4974882;28;20390;-59
2021/12/15 15:00:09;;;;;;;2.87;1.40;;;;;;;;;;4975620;28;20034;-58
2021/12/15 15:02:37;;;;;;;4.63;1.50;;;;;;;;;;4973375;28;20104;-58
2021/12/15 15:05:16;;;;;;;4.43;1.50;;;;;;;;;;4969994;28;20031;-58
2021/12/15 15:07:45;;;;;;;4.67;2.13;;;;;;;;;;4969490;28;20114;-58
2021/12/15 15:10:16;;;;;;;4.57;2.13;;;;;;;;;;4969506;28;20042;-58
2021/12/15 15:12:44;;;;;;;2.57;1.67;;;;;;;;;;4971391;28;20023;-58
2021/12/15 15:15:14;;;;;;;3.50;1.80;;;;;;;;;;4974976;28;20093;-58
2021/12/15 15:20:15;;;;;;;4.82;2.22;;;;;;;;;;4974998;28;20097;-58
2021/12/15 15:22:43;;;;;;;2.97;1.50;;;;;;;;;;4974956;28;20035;-58
2021/12/15 15:25:11;;;;;;;3.27;1.60;;;;;;;;;;4972391;28;20026;-58
2021/12/15 15:27:39;;;;;;;3.67;1.23;;;;;;;;;;4969181;28;20026;-58
2021/12/15 15:30:08;;;;;;;5.57;1.83;;;;;;;;;;4969203;28;20467;-58
2021/12/15 15:32:36;;;;;;;3.53;1.47;;;;;;;;;;4969146;28;20035;-58
2021/12/15 15:35:12;;;;;;;4.10;1.50;;;;;;;;;;4971282;28;20035;-59
2021/12/15 15:37:39;;;;;;;3.53;1.60;;;;;;;;;;4974704;28;20031;-58
2021/12/15 15:40:06;;;;;;;2.33;1.30;;;;;;;;;;4974590;28;20033;-58
2021/12/15 15:42:33;;;;;;;3.70;1.80;;;;;;;;;;4974440;28;20082;-59
2021/12/15 15:45:00;;;;;;;2.63;1.47;;;;;;;;;;4974482;28;20034;-58
2021/12/15 15:47:26;;;;;;;4.17;1.80;;;;;;;;;;4971552;28;20501;-59
2021/12/15 15:49:56;;;;;;;6.43;1.93;;;;;;;;;;4968500;28;20081;-59
2021/12/15 15:52:23;;;;;;;12.40;1.97;;;;;;;;;;4968751;28;20122;-59
2021/12/15 15:54:50;;;;;;;3.83;1.90;;;;;;;;;;4968850;28;20046;-58
2021/12/15 15:57:22;;;;;;;4.23;1.30;;;;;;;;;;4971389;28;20114;-59
2021/12/15 15:59:49;;;;;;;3.73;1.43;;;;;;;;;;4974200;28;20032;-58
2021/12/15 16:02:17;;;;;;;2.70;1.13;;;;;;;;;;4973750;28;20031;-59
2021/12/15 16:04:44;;;;;;;2.23;1.13;;;;;;;;;;4973490;28;20034;-58
2021/12/15 16:07:15;;;;;;;3.23;1.10;;;;;;;;;;4974300;28;20377;-59
2021/12/15 16:09:42;;;;;;;3.73;1.37;;;;;;;;;;4971093;28;20038;-59
2021/12/15 16:12:12;;;;;;;3.37;1.30;;;;;;;;;;4968741;28;20058;-59
2021/12/15 16:14:49;;;;;;;3.00;1.30;;;;;;;;;;4968685;28;20027;-59
2021/12/15 16:17:37;;;;;;;7.77;2.00;;;;;;;;;;4965101;28;20038;-61
2021/12/15 16:20:26;;;;;;;2.87;1.87;;;;;;;;;;4972108;28;20085;-62
2021/12/15 16:23:03;;;;;;;3.23;1.60;;;;;;;;;;4974086;28;20034;-61
2021/12/15 16:25:38;;;;;;;5.53;2.20;;;;;;;;;;4973594;28;20030;-62
2021/12/15 16:28:05;;;;;;;;;;;;;;;;;;4974158;28;20038;-62
2021/12/15 16:30:36;;;;;;;4.93;1.60;;;;;;;;;;4974068;28;19914;-62
2021/12/15 16:33:03;;;;;;;3.13;2.10;;;;;;;;;;4967947;28;20030;-62